createdAt,value
2019-02-20T00:00:43.388Z,101619.59
2019-02-20T00:06:49.628Z,101610.70
2019-02-20T00:12:55.471Z,101607.16
2019-02-20T00:19:01.688Z,101614.08
2019-02-20T00:25:09.172Z,101606.98
2019-02-20T00:31:15.098Z,101621.28
2019-02-20T00:37:20.984Z,101612.38
2019-02-20T00:43:27.190Z,101611.00
2019-02-20T00:49:37.536Z,101620.92
2019-02-20T00:55:43.431Z,101625.34
2019-02-20T01:01:49.340Z,101618.49
2019-02-20T01:07:55.109Z,101619.59
2019-02-20T01:14:01.118Z,101628.54
2019-02-20T01:20:08.991Z,101627.02
2019-02-20T01:26:15.182Z,101614.47
2019-02-20T01:32:21.039Z,101624.45
2019-02-20T01:38:26.946Z,101628.72
2019-02-20T01:44:32.700Z,101625.16
2019-02-20T01:50:38.490Z,101625.55
2019-02-20T01:56:44.283Z,101620.31
2019-02-20T02:02:50.331Z,101614.19
2019-02-20T02:08:56.372Z,101617.70
2019-02-20T02:15:02.220Z,101615.61
2019-02-20T02:21:07.965Z,101619.05
2019-02-20T02:27:13.854Z,101621.67
2019-02-20T02:33:20.029Z,101616.75
2019-02-20T02:39:26.138Z,101615.44
2019-02-20T02:45:31.886Z,101613.77
2019-02-20T02:51:37.623Z,101612.98
2019-02-20T02:57:43.416Z,101592.43
2019-02-20T03:03:49.266Z,101582.00
2019-02-20T03:09:55.320Z,101593.56
2019-02-20T03:16:01.338Z,101593.35
2019-02-20T03:22:07.093Z,101597.64
2019-02-20T03:28:12.944Z,101599.56
2019-02-20T03:34:18.733Z,101608.02
2019-02-20T03:40:24.455Z,101614.02
2019-02-20T03:46:30.580Z,101615.83
2019-02-20T03:52:36.866Z,101620.20
2019-02-20T03:58:42.617Z,101627.66
2019-02-20T04:04:48.315Z,101628.98
2019-02-20T04:10:54.175Z,101624.92
2019-02-20T04:16:59.985Z,101632.69
2019-02-20T04:23:05.860Z,101634.20
2019-02-20T04:29:11.599Z,101629.45
2019-02-20T04:35:17.332Z,101623.33
2019-02-20T04:41:23.195Z,101629.38
2019-02-20T04:47:29.501Z,101632.88
2019-02-20T04:53:35.256Z,101643.53
2019-02-20T04:59:41.518Z,101622.97
2019-02-20T05:05:47.506Z,101626.34
2019-02-20T05:11:53.931Z,101633.56
2019-02-20T05:18:00.005Z,101630.91
2019-02-20T05:24:06.075Z,101629.93
2019-02-20T05:30:11.820Z,101627.26
2019-02-20T05:36:17.977Z,101626.38
2019-02-20T05:42:24.074Z,101631.61
2019-02-20T05:48:29.787Z,101630.54
2019-02-20T05:54:35.998Z,101633.67
2019-02-20T06:00:42.170Z,101624.02
2019-02-20T06:06:49.127Z,101635.73
2019-02-20T06:12:54.888Z,101639.71
2019-02-20T06:19:00.816Z,101650.36
2019-02-20T06:25:06.667Z,101660.02
2019-02-20T06:31:12.734Z,101655.84
2019-02-20T06:37:18.536Z,101664.63
2019-02-20T06:43:24.542Z,101648.45
2019-02-20T06:49:30.284Z,101665.38
2019-02-20T06:55:36.302Z,101667.55
2019-02-20T07:01:42.340Z,101675.92
2019-02-20T07:08:51.651Z,101672.55
2019-02-20T07:16:08.221Z,101674.30
2019-02-20T07:22:45.021Z,101683.40
2019-02-20T07:29:42.522Z,101702.58
2019-02-20T07:35:48.430Z,101706.02
2019-02-20T07:41:54.637Z,101714.16
2019-02-20T07:48:01.205Z,101716.44
2019-02-20T07:54:07.117Z,101712.26
2019-02-20T08:00:14.635Z,101722.41
2019-02-20T08:06:20.415Z,101723.91
2019-02-20T08:12:26.454Z,101732.92
2019-02-20T08:18:33.092Z,101739.53
2019-02-20T08:24:39.360Z,101753.32
2019-02-20T08:30:45.150Z,101751.47
2019-02-20T08:36:50.990Z,101765.28
2019-02-20T08:42:57.187Z,101765.46
2019-02-20T08:49:03.044Z,101768.80
2019-02-20T08:55:09.681Z,101766.20
2019-02-20T09:01:15.578Z,101767.48
2019-02-20T09:07:21.459Z,101772.70
2019-02-20T09:13:27.279Z,101774.67
2019-02-20T09:19:33.117Z,101769.56
2019-02-20T09:25:41.591Z,101779.38
2019-02-20T09:31:46.401Z,101778.26
2019-02-20T09:37:52.269Z,101775.89
2019-02-20T09:43:58.101Z,101778.87
2019-02-20T09:50:03.978Z,101774.36
2019-02-20T09:56:10.036Z,101778.19
2019-02-20T10:02:16.054Z,101772.33
2019-02-20T10:08:21.939Z,101774.63
2019-02-20T10:14:27.855Z,101775.98
2019-02-20T10:20:33.679Z,101771.86
2019-02-20T10:26:39.421Z,101781.39
2019-02-20T10:32:45.556Z,101771.20
2019-02-20T10:38:51.422Z,101783.84
2019-02-20T10:44:57.324Z,101778.28
2019-02-20T10:51:03.427Z,101783.70
2019-02-20T10:57:09.634Z,101786.03
2019-02-20T11:03:15.420Z,101789.30
2019-02-20T11:09:22.254Z,101796.43
2019-02-20T11:15:28.846Z,101805.89
2019-02-20T11:21:35.240Z,101798.97
2019-02-20T11:27:42.093Z,101788.19
2019-02-20T11:33:48.188Z,101789.63
2019-02-20T11:39:54.602Z,101783.18
2019-02-20T11:46:00.936Z,101779.39
2019-02-20T11:52:06.776Z,101786.52
2019-02-20T11:58:13.198Z,101782.05
2019-02-20T12:04:18.981Z,101787.39
2019-02-20T12:10:24.925Z,101790.50
2019-02-20T12:16:31.317Z,101785.27
2019-02-20T12:22:37.318Z,101785.70
2019-02-20T12:28:43.636Z,101777.38
2019-02-20T12:34:49.542Z,101775.66
2019-02-20T12:40:55.482Z,101777.97
2019-02-20T12:47:01.448Z,101785.95
2019-02-20T12:53:07.445Z,101785.05
2019-02-20T12:59:13.187Z,101779.34
2019-02-20T13:05:19.273Z,101777.67
2019-02-20T13:11:25.190Z,101778.14
2019-02-20T13:17:31.099Z,101769.77
2019-02-20T13:23:37.288Z,101771.12
2019-02-20T13:29:43.103Z,101764.51
2019-02-20T13:35:49.032Z,101767.64
2019-02-20T13:41:55.318Z,101763.71
2019-02-20T13:48:01.435Z,101766.36
2019-02-20T13:54:07.316Z,101762.37
2019-02-20T14:00:13.656Z,101761.91
2019-02-20T14:06:19.476Z,101756.59
2019-02-20T14:12:25.744Z,101752.63
2019-02-20T14:18:31.816Z,101748.70
2019-02-20T14:24:37.595Z,101741.66
2019-02-20T14:30:43.362Z,101746.52
2019-02-20T14:36:49.364Z,101746.50
2019-02-20T14:42:55.361Z,101750.86
2019-02-20T14:49:02.526Z,101749.53
2019-02-20T14:55:09.988Z,101747.82
2019-02-20T15:01:16.090Z,101749.11
2019-02-20T15:07:22.431Z,101756.56
2019-02-20T15:13:28.168Z,101749.96
2019-02-20T15:19:34.027Z,101758.30
2019-02-20T15:25:39.959Z,101759.18
2019-02-20T15:31:45.843Z,101766.24
2019-02-20T15:37:52.092Z,101765.34
2019-02-20T15:43:58.148Z,101769.76
2019-02-20T15:50:04.440Z,101773.70
2019-02-20T15:56:14.048Z,101775.85
2019-02-20T16:02:20.021Z,101774.53
2019-02-20T16:08:25.900Z,101778.42
2019-02-20T16:14:31.730Z,101778.36
2019-02-20T16:20:37.912Z,101780.06
2019-02-20T16:26:43.767Z,101783.09
2019-02-20T16:32:51.207Z,101781.69
2019-02-20T16:38:57.528Z,101790.43
2019-02-20T16:45:03.294Z,101788.17
2019-02-20T16:51:09.228Z,101786.25
2019-02-20T16:57:15.366Z,101796.28
2019-02-20T17:03:21.836Z,101807.55
2019-02-20T17:09:27.981Z,101814.05
2019-02-20T17:15:33.913Z,101821.52
2019-02-20T17:21:40.041Z,101828.94
2019-02-20T17:27:46.217Z,101837.27
2019-02-20T17:33:52.203Z,101842.95
2019-02-20T17:39:58.346Z,101848.19
2019-02-20T17:46:04.502Z,101849.92
2019-02-20T17:52:10.294Z,101857.31
2019-02-20T17:58:16.860Z,101856.36
2019-02-20T18:04:22.817Z,101854.08
2019-02-20T18:10:28.914Z,101861.32
2019-02-20T18:16:34.770Z,101858.89
2019-02-20T18:22:40.791Z,101861.88
2019-02-20T18:28:47.034Z,101865.28
2019-02-20T18:34:53.220Z,101869.11
2019-02-20T18:40:59.270Z,101873.02
2019-02-20T18:47:05.121Z,101877.72
2019-02-20T18:53:13.362Z,101875.58
2019-02-20T18:59:19.303Z,101886.64
2019-02-20T19:05:25.456Z,101887.28
2019-02-20T19:12:08.903Z,101887.55
2019-02-20T19:19:32.499Z,101883.89
2019-02-20T19:26:24.688Z,101881.48
2019-02-20T19:33:57.350Z,101879.69
2019-02-20T19:41:04.432Z,101883.08
2019-02-20T19:47:46.264Z,101888.73
2019-02-20T19:54:42.223Z,101899.55
2019-02-20T20:01:32.661Z,101904.41
2019-02-20T20:08:11.530Z,101906.43
2019-02-20T20:15:12.564Z,101903.98
2019-02-20T20:22:16.235Z,101903.42
2019-02-20T20:29:07.938Z,101895.33
2019-02-20T20:36:27.507Z,101892.30
2019-02-20T20:43:16.127Z,101891.64
2019-02-20T20:50:19.377Z,101897.47
2019-02-20T20:57:27.217Z,101908.59
2019-02-20T21:03:33.942Z,101914.77
2019-02-20T21:10:38.674Z,101918.39
2019-02-20T21:17:44.561Z,101928.81
2019-02-20T21:25:01.197Z,101924.45
2019-02-20T21:32:18.636Z,101925.64
2019-02-20T21:39:31.022Z,101932.48
2019-02-20T21:46:15.435Z,101942.86
2019-02-20T21:53:02.686Z,101950.59
2019-02-20T22:00:12.025Z,101941.05
2019-02-20T22:07:36.148Z,101948.02
2019-02-20T22:14:49.564Z,101959.63
2019-02-20T22:21:59.687Z,101957.92
2019-02-20T22:28:45.842Z,101952.19
2019-02-20T22:35:38.733Z,101953.96
2019-02-20T22:42:36.942Z,101958.45
2019-02-20T22:49:50.956Z,101963.80
2019-02-20T22:56:44.254Z,101970.40
2019-02-20T23:03:39.515Z,101975.50
2019-02-20T23:10:09.882Z,101975.36
2019-02-20T23:16:16.027Z,101969.27
2019-02-20T23:22:22.153Z,101970.57
2019-02-20T23:28:27.944Z,101969.47
2019-02-20T23:34:33.963Z,101973.25
2019-02-20T23:40:39.839Z,101983.62
2019-02-20T23:46:46.040Z,101987.23
2019-02-20T23:52:51.853Z,101991.39
2019-02-20T23:58:57.896Z,101990.91
